createdAt,value
2023-03-22T00:02:30.701Z,63.00
2023-03-22T00:04:57.748Z,63.10
2023-03-22T00:07:24.841Z,62.90
2023-03-22T00:09:52.210Z,62.80
2023-03-22T00:12:19.101Z,62.70
2023-03-22T00:14:46.280Z,62.70
2023-03-22T00:17:13.216Z,62.80
2023-03-22T00:19:42.334Z,63.00
2023-03-22T00:22:09.341Z,63.30
2023-03-22T00:24:36.329Z,63.50
2023-03-22T00:27:03.986Z,63.40
2023-03-22T00:29:30.862Z,63.50
2023-03-22T00:31:58.435Z,63.50
2023-03-22T00:34:27.489Z,63.90
2023-03-22T00:36:56.350Z,64.00
2023-03-22T00:39:23.445Z,63.80
2023-03-22T00:41:51.336Z,63.90
2023-03-22T00:44:18.202Z,64.00
2023-03-22T00:46:45.167Z,64.00
2023-03-22T00:49:12.531Z,64.10
2023-03-22T00:51:39.433Z,64.30
2023-03-22T00:54:06.744Z,64.20
2023-03-22T00:56:36.243Z,64.40
2023-03-22T00:59:03.462Z,64.60
2023-03-22T01:01:30.948Z,64.50
2023-03-22T01:03:58.103Z,64.60
2023-03-22T01:06:25.134Z,64.80
2023-03-22T01:08:55.347Z,64.70
2023-03-22T01:11:22.236Z,64.60
2023-03-22T01:13:49.849Z,64.60
2023-03-22T01:16:17.684Z,64.60
2023-03-22T01:18:45.050Z,64.40
2023-03-22T01:21:11.906Z,64.20
2023-03-22T01:23:39.213Z,64.30
2023-03-22T01:26:06.269Z,64.30
2023-03-22T01:28:33.261Z,64.60
2023-03-22T01:31:04.301Z,64.60
2023-03-22T01:33:31.635Z,64.70
2023-03-22T01:35:58.536Z,64.80
2023-03-22T01:38:25.500Z,64.90
2023-03-22T01:40:52.379Z,65.10
2023-03-22T01:43:19.640Z,65.00
2023-03-22T01:45:51.658Z,65.10
2023-03-22T01:48:24.995Z,65.20
2023-03-22T01:51:03.055Z,65.10
2023-03-22T01:53:31.666Z,65.30
2023-03-22T01:55:59.078Z,65.20
2023-03-22T01:58:26.289Z,65.50
2023-03-22T02:00:53.612Z,65.60
2023-03-22T02:03:25.966Z,65.80
2023-03-22T02:05:53.166Z,66.10
2023-03-22T02:08:20.162Z,66.20
2023-03-22T02:10:47.133Z,66.50
2023-03-22T02:13:14.035Z,66.80
2023-03-22T02:15:47.424Z,67.00
2023-03-22T02:18:21.670Z,67.20
2023-03-22T02:21:07.389Z,67.40
2023-03-22T02:23:43.155Z,67.60
2023-03-22T02:26:18.528Z,67.80
2023-03-22T02:28:48.196Z,67.70
2023-03-22T02:31:21.340Z,67.90
2023-03-22T02:33:54.385Z,68.10
2023-03-22T02:36:35.174Z,68.30
2023-03-22T02:39:05.160Z,68.40
2023-03-22T02:41:43.073Z,68.50
2023-03-22T02:44:12.667Z,68.50
2023-03-22T02:46:42.711Z,68.50
2023-03-22T02:49:14.616Z,68.50
2023-03-22T02:51:44.422Z,68.50
2023-03-22T02:54:11.379Z,68.70
2023-03-22T02:56:43.056Z,68.80
2023-03-22T02:59:12.027Z,69.00
2023-03-22T03:01:45.541Z,69.00
2023-03-22T03:04:21.721Z,68.80
2023-03-22T03:06:50.201Z,69.00
2023-03-22T03:09:18.735Z,69.20
2023-03-22T03:11:47.076Z,69.30
2023-03-22T03:14:25.147Z,69.40
2023-03-22T03:17:02.261Z,69.30
2023-03-22T03:19:35.535Z,69.40
2023-03-22T03:22:22.674Z,69.40
2023-03-22T03:24:53.835Z,69.50
2023-03-22T03:27:24.025Z,69.80
2023-03-22T03:29:57.127Z,69.80
2023-03-22T03:32:35.338Z,69.60
2023-03-22T03:35:06.290Z,69.60
2023-03-22T03:37:39.932Z,69.60
2023-03-22T03:40:11.836Z,69.60
2023-03-22T03:42:40.423Z,69.70
2023-03-22T03:45:08.130Z,69.90
2023-03-22T03:47:36.325Z,69.60
2023-03-22T03:50:04.191Z,69.60
2023-03-22T03:52:31.923Z,69.70
2023-03-22T03:54:58.831Z,70.00
2023-03-22T03:57:25.707Z,70.20
2023-03-22T03:59:52.597Z,70.20
2023-03-22T04:02:19.751Z,69.90
2023-03-22T04:04:46.758Z,69.70
2023-03-22T04:07:13.693Z,69.70
2023-03-22T04:09:41.438Z,69.80
2023-03-22T04:12:10.021Z,69.50
2023-03-22T04:14:36.884Z,69.40
2023-03-22T04:17:03.918Z,69.80
2023-03-22T04:19:31.417Z,69.80
2023-03-22T04:21:58.334Z,70.00
2023-03-22T04:24:25.139Z,69.90
2023-03-22T04:26:52.813Z,69.80
2023-03-22T04:29:19.811Z,69.80
2023-03-22T04:31:46.725Z,69.90
2023-03-22T04:34:14.245Z,70.00
2023-03-22T04:36:41.286Z,70.10
2023-03-22T04:39:09.786Z,70.10
2023-03-22T04:41:37.349Z,70.10
2023-03-22T04:44:04.908Z,70.20
2023-03-22T04:46:32.727Z,70.50
2023-03-22T04:48:59.698Z,70.60
2023-03-22T04:51:27.288Z,70.50
2023-03-22T04:53:54.558Z,70.50
2023-03-22T04:56:21.916Z,70.30
2023-03-22T04:58:48.820Z,70.20
2023-03-22T05:01:16.907Z,70.10
2023-03-22T05:03:45.935Z,69.90
2023-03-22T05:06:12.909Z,69.90
2023-03-22T05:08:40.137Z,69.70
2023-03-22T05:11:10.200Z,69.50
2023-03-22T05:13:37.874Z,69.50
2023-03-22T05:16:05.795Z,69.80
2023-03-22T05:18:32.992Z,70.10
2023-03-22T05:21:00.839Z,70.10
2023-03-22T05:23:27.890Z,69.90
2023-03-22T05:25:54.779Z,69.80
2023-03-22T05:28:22.381Z,69.80
2023-03-22T05:30:49.803Z,69.80
2023-03-22T05:33:21.680Z,70.10
2023-03-22T05:35:50.028Z,70.20
2023-03-22T05:38:17.078Z,70.40
2023-03-22T05:40:44.556Z,70.40
2023-03-22T05:43:11.778Z,70.40
2023-03-22T05:45:38.762Z,70.60
2023-03-22T05:48:06.279Z,70.70
2023-03-22T05:50:33.507Z,70.90
2023-03-22T05:53:00.550Z,71.10
2023-03-22T05:55:27.947Z,71.30
2023-03-22T05:57:54.928Z,71.40
2023-03-22T06:00:22.073Z,71.30
2023-03-22T06:02:49.406Z,71.00
2023-03-22T06:05:17.114Z,70.90
2023-03-22T06:07:44.241Z,71.00
2023-03-22T06:10:12.301Z,71.00
2023-03-22T06:12:39.172Z,70.80
2023-03-22T06:15:06.626Z,70.80
2023-03-22T06:17:33.619Z,70.60
2023-03-22T06:20:00.571Z,70.60
2023-03-22T06:22:30.617Z,70.90
2023-03-22T06:24:57.492Z,71.00
2023-03-22T06:27:24.386Z,71.20
2023-03-22T06:29:54.820Z,71.30
2023-03-22T06:32:23.927Z,71.50
2023-03-22T06:34:51.282Z,71.70
2023-03-22T06:37:18.265Z,71.70
2023-03-22T06:39:45.304Z,71.80
2023-03-22T06:42:12.337Z,71.60
2023-03-22T06:44:42.509Z,71.60
2023-03-22T06:47:10.039Z,71.60
2023-03-22T06:49:36.906Z,71.60
2023-03-22T06:52:04.059Z,71.50
2023-03-22T06:54:30.994Z,71.60
2023-03-22T06:56:57.911Z,71.50
2023-03-22T06:59:24.749Z,71.50
2023-03-22T07:01:51.624Z,71.50
2023-03-22T07:04:20.238Z,71.30
2023-03-22T07:06:47.272Z,71.20
2023-03-22T07:09:14.161Z,71.00
2023-03-22T07:11:41.491Z,70.80
2023-03-22T07:14:08.848Z,70.70
2023-03-22T07:16:35.730Z,70.80
2023-03-22T07:19:02.832Z,70.70
2023-03-22T07:21:29.772Z,70.60
2023-03-22T07:23:56.915Z,70.70
2023-03-22T07:26:24.719Z,70.70
2023-03-22T07:28:51.626Z,70.50
2023-03-22T07:31:18.763Z,70.40
2023-03-22T07:33:45.777Z,70.30
2023-03-22T07:36:13.080Z,70.30
2023-03-22T07:38:40.156Z,70.30
2023-03-22T07:41:07.079Z,70.00
2023-03-22T07:43:41.532Z,69.90
2023-03-22T07:46:14.335Z,69.80
2023-03-22T07:48:41.935Z,69.80
2023-03-22T07:51:08.822Z,69.70
2023-03-22T07:53:36.856Z,69.60
2023-03-22T07:56:04.547Z,69.50
2023-03-22T07:58:31.650Z,69.40
2023-03-22T08:01:00.606Z,69.10
2023-03-22T08:03:27.587Z,69.00
2023-03-22T08:05:54.495Z,69.00
2023-03-22T08:08:21.653Z,69.00
2023-03-22T08:10:49.044Z,69.00
2023-03-22T08:13:15.990Z,68.90
2023-03-22T08:15:43.421Z,68.90
2023-03-22T08:18:10.928Z,69.00
2023-03-22T08:20:38.401Z,68.80
2023-03-22T08:23:05.932Z,68.60
2023-03-22T08:25:33.574Z,68.40
2023-03-22T08:28:00.472Z,68.30
2023-03-22T08:30:27.724Z,68.30
2023-03-22T08:32:54.585Z,68.10
2023-03-22T08:35:21.532Z,68.10
2023-03-22T08:37:48.406Z,68.30
2023-03-22T08:40:15.406Z,68.00
2023-03-22T08:42:42.558Z,67.80
2023-03-22T08:45:10.451Z,67.60
2023-03-22T08:47:37.279Z,67.50
2023-03-22T08:50:04.440Z,67.20
2023-03-22T08:52:31.503Z,67.10
2023-03-22T08:54:58.393Z,67.00
2023-03-22T08:57:27.767Z,66.90
2023-03-22T08:59:56.772Z,66.00
2023-03-22T09:02:24.330Z,66.00
2023-03-22T09:04:51.400Z,65.70
2023-03-22T09:07:20.386Z,65.50
2023-03-22T09:09:47.351Z,65.50
2023-03-22T09:12:14.252Z,65.00
2023-03-22T09:14:41.246Z,64.40
2023-03-22T09:17:08.082Z,64.10
2023-03-22T09:19:35.885Z,63.60
2023-03-22T09:22:03.482Z,62.80
2023-03-22T09:24:30.422Z,62.50
2023-03-22T09:26:58.688Z,60.80
2023-03-22T09:29:25.709Z,60.50
2023-03-22T09:31:53.671Z,59.60
2023-03-22T09:34:20.749Z,59.00
2023-03-22T09:36:47.683Z,58.40
2023-03-22T09:39:16.438Z,58.10
2023-03-22T09:41:55.010Z,57.60
2023-03-22T09:44:27.567Z,57.80
2023-03-22T09:46:55.581Z,57.60
2023-03-22T09:49:24.557Z,57.40
2023-03-22T09:51:51.911Z,57.40
2023-03-22T09:54:21.769Z,57.00
2023-03-22T09:56:51.686Z,56.60
2023-03-22T09:59:40.172Z,56.60
2023-03-22T10:02:23.373Z,55.30
2023-03-22T10:05:08.825Z,55.00
2023-03-22T10:07:44.590Z,54.70
2023-03-22T10:10:19.046Z,54.40
2023-03-22T10:13:10.599Z,54.00
2023-03-22T10:15:39.109Z,53.70
2023-03-22T10:18:08.164Z,53.70
2023-03-22T10:20:40.106Z,53.30
2023-03-22T10:23:10.564Z,52.70
2023-03-22T10:25:39.327Z,52.40
2023-03-22T10:28:23.814Z,52.10
2023-03-22T10:30:53.719Z,52.30
2023-03-22T10:33:38.790Z,52.30
2023-03-22T10:36:07.849Z,52.00
2023-03-22T10:38:37.077Z,51.70
2023-03-22T10:41:04.056Z,51.70
2023-03-22T10:43:31.038Z,51.40
2023-03-22T10:45:58.398Z,51.40
2023-03-22T10:48:25.398Z,51.50
2023-03-22T10:50:53.588Z,51.40
2023-03-22T10:53:39.404Z,51.10
2023-03-22T10:56:10.028Z,51.10
2023-03-22T10:58:36.943Z,51.00
2023-03-22T11:01:15.169Z,50.60
2023-03-22T11:03:43.557Z,50.50
2023-03-22T11:06:18.405Z,50.20
2023-03-22T11:08:46.808Z,49.60
2023-03-22T11:11:17.849Z,49.20
2023-03-22T11:13:49.904Z,48.90
2023-03-22T11:16:17.883Z,48.50
2023-03-22T11:18:44.963Z,47.90
2023-03-22T11:21:12.566Z,47.20
2023-03-22T11:23:41.861Z,46.50
2023-03-22T11:26:10.253Z,46.10
2023-03-22T11:28:47.211Z,45.80
2023-03-22T11:31:15.704Z,45.50
2023-03-22T11:34:02.005Z,45.10
2023-03-22T11:36:29.329Z,44.70
2023-03-22T11:39:00.985Z,44.00
2023-03-22T11:41:32.189Z,43.40
2023-03-22T11:44:01.967Z,42.80
2023-03-22T11:46:29.332Z,42.40
2023-03-22T11:49:01.812Z,42.10
2023-03-22T11:51:35.155Z,41.80
2023-03-22T11:54:07.020Z,41.40
2023-03-22T11:56:34.759Z,40.90
2023-03-22T11:59:09.578Z,40.50
2023-03-22T12:01:39.187Z,40.40
2023-03-22T12:04:08.163Z,40.10
2023-03-22T12:06:37.327Z,39.60
2023-03-22T12:09:12.896Z,39.10
2023-03-22T12:11:41.300Z,38.90
2023-03-22T12:14:18.818Z,38.80
2023-03-22T12:17:04.828Z,38.60
2023-03-22T12:19:34.592Z,38.60
2023-03-22T12:22:01.536Z,38.90
2023-03-22T12:24:30.449Z,39.00
2023-03-22T12:27:02.193Z,38.80
2023-03-22T12:29:32.119Z,38.60
2023-03-22T12:32:09.064Z,38.10
2023-03-22T12:34:39.033Z,37.70
2023-03-22T12:37:07.416Z,37.30
2023-03-22T12:39:37.678Z,37.10
2023-03-22T12:42:11.816Z,36.80
2023-03-22T12:44:46.520Z,36.70
2023-03-22T12:47:21.846Z,36.70
2023-03-22T12:50:14.804Z,36.90
2023-03-22T12:52:47.222Z,37.10
2023-03-22T12:55:20.547Z,37.40
2023-03-22T12:57:51.439Z,37.70
2023-03-22T13:00:19.272Z,37.70
2023-03-22T13:02:53.340Z,37.50
2023-03-22T13:05:20.560Z,37.40
2023-03-22T13:07:47.554Z,37.50
2023-03-22T13:10:29.730Z,37.50
2023-03-22T13:13:17.471Z,37.30
2023-03-22T13:15:56.714Z,37.30
2023-03-22T13:18:43.732Z,37.50
2023-03-22T13:21:16.698Z,37.40
2023-03-22T13:23:52.752Z,37.40
2023-03-22T13:26:20.232Z,37.50
2023-03-22T13:28:57.765Z,37.80
2023-03-22T13:31:50.828Z,38.00
2023-03-22T13:34:22.619Z,37.90
2023-03-22T13:36:51.066Z,37.80
2023-03-22T13:39:18.244Z,37.80
2023-03-22T13:41:49.191Z,37.90
2023-03-22T13:44:20.531Z,37.90
2023-03-22T13:46:50.470Z,38.00
2023-03-22T13:49:22.711Z,38.30
2023-03-22T13:51:49.856Z,38.20
2023-03-22T13:54:18.740Z,38.20
2023-03-22T13:56:56.613Z,38.30
2023-03-22T13:59:33.930Z,38.40
2023-03-22T14:02:05.533Z,38.70
2023-03-22T14:04:35.211Z,38.90
2023-03-22T14:07:23.366Z,38.90
2023-03-22T14:09:51.670Z,39.00
2023-03-22T14:12:21.434Z,38.90
2023-03-22T14:14:52.227Z,38.70
2023-03-22T14:17:29.846Z,38.50
2023-03-22T14:19:56.977Z,38.30
